Time;durP1;ratioP1;P1;durP2;ratioP2;P2;SDS_P1;SDS_P2;PMS_P1;PMS_P2;Temp;Humidity;BMP_temperature;BMP_pressure;BME280_temperature;BME280_humidity;BME280_pressure;Samples;Min_cycle;Max_cycle;Signal;HPM_P1;HPM_P2
2022/11/09 00:01:37;;;;;;;3.95;2.90;;;5.60;99.90;;;;;;6084337;23;20025;-81
2022/11/09 00:04:48;;;;;;;3.28;2.72;;;5.70;99.90;;;;;;6107896;23;20033;-82
2022/11/09 00:07:44;;;;;;;4.82;2.55;;;5.90;99.90;;;;;;6107259;23;20350;-81
2022/11/09 00:10:38;;;;;;;5.25;3.40;;;5.90;99.90;;;;;;6153879;23;20018;-81
2022/11/09 00:13:27;;;;;;;2.58;2.38;;;5.90;99.90;;;;;;6106315;23;20029;-81
2022/11/09 00:15:59;;;;;;;3.72;2.85;;;5.90;99.90;;;;;;6107166;23;20028;-82
2022/11/09 00:18:38;;;;;;;2.67;2.47;;;5.90;99.90;;;;;;6110537;23;20025;-82
2022/11/09 00:21:24;;;;;;;4.22;2.88;;;6.00;99.90;;;;;;6165871;23;20021;-82
2022/11/09 00:24:00;;;;;;;2.45;2.22;;;5.90;99.90;;;;;;6113090;23;20048;-81
2022/11/09 00:26:41;;;;;;;6.60;3.00;;;5.90;99.90;;;;;;6155413;23;20025;-82
2022/11/09 00:29:45;;;;;;;3.17;2.33;;;5.90;99.90;;;;;;6161214;23;20024;-82
2022/11/09 00:32:29;;;;;;;2.80;2.60;;;6.00;99.90;;;;;;6093169;23;20029;-81
2022/11/09 00:38:46;;;;;;;4.30;2.70;;;5.90;99.90;;;;;;6135840;23;20025;-82
2022/11/09 00:41:30;;;;;;;2.72;2.53;;;5.40;99.90;;;;;;6138158;23;20021;-82
2022/11/09 00:44:14;;;;;;;5.32;2.85;;;5.20;99.90;;;;;;6094449;23;20033;-82
2022/11/09 00:46:52;;;;;;;4.28;2.78;;;5.00;99.90;;;;;;6130277;23;20044;-81
2022/11/09 00:49:31;;;;;;;3.03;2.50;;;4.80;99.90;;;;;;6107245;23;20014;-82
2022/11/09 00:52:41;;;;;;;4.15;3.03;;;4.70;99.90;;;;;;6104025;23;20018;-82
2022/11/09 00:56:01;;;;;;;3.67;2.97;;;4.80;99.90;;;;;;6071142;23;20022;-82
2022/11/09 00:58:49;;;;;;;8.05;2.75;;;4.70;99.90;;;;;;6089915;23;20029;-82
2022/11/09 01:01:43;;;;;;;2.90;2.70;;;4.80;99.90;;;;;;6106485;23;20345;-82
2022/11/09 01:04:42;;;;;;;2.83;2.30;;;5.10;99.90;;;;;;6111318;23;20014;-82
2022/11/09 01:08:06;;;;;;;2.47;2.28;;;5.10;99.90;;;;;;6119667;23;20033;-82
2022/11/09 01:10:56;;;;;;;3.22;2.55;;;4.80;99.90;;;;;;6135523;23;20179;-82
2022/11/09 01:13:49;;;;;;;3.28;2.78;;;4.80;99.90;;;;;;6104235;23;20853;-82
2022/11/09 01:16:46;;;;;;;3.20;2.92;;;4.70;99.90;;;;;;6090912;23;20083;-82
2022/11/09 01:19:24;;;;;;;4.43;4.03;;;4.60;99.90;;;;;;6104243;23;20025;-82
2022/11/09 01:22:12;;;;;;;4.00;2.72;;;4.30;99.90;;;;;;6108580;23;20022;-82
2022/11/09 01:24:53;;;;;;;2.75;2.55;;;4.10;99.90;;;;;;6128094;23;20033;-82
2022/11/09 01:27:35;;;;;;;2.47;2.28;;;4.00;99.90;;;;;;6069325;23;20500;-81
2022/11/09 01:30:23;;;;;;;4.97;3.20;;;4.10;99.90;;;;;;6092836;23;20021;-81
2022/11/09 01:32:53;;;;;;;4.22;3.83;;;4.20;99.90;;;;;;6105645;23;20033;-82
2022/11/09 01:35:43;;;;;;;4.30;3.55;;;4.10;99.90;;;;;;6100034;23;20021;-82
2022/11/09 01:38:19;;;;;;;5.72;4.13;;;4.10;99.90;;;;;;6077242;23;20350;-82
2022/11/09 01:41:25;;;;;;;3.72;3.05;;;4.10;99.90;;;;;;6105075;23;20025;-82
2022/11/09 01:44:21;;;;;;;3.45;3.25;;;4.10;99.90;;;;;;6125806;23;20021;-81
2022/11/09 01:47:25;;;;;;;4.68;2.92;;;4.00;99.90;;;;;;6085384;23;20036;-81
2022/11/09 01:50:31;;;;;;;3.90;3.38;;;4.10;99.90;;;;;;6077002;23;20021;-82
2022/11/09 01:53:19;;;;;;;2.70;2.50;;;4.10;99.90;;;;;;6139572;23;20037;-82
2022/11/09 01:56:23;;;;;;;2.45;2.25;;;3.90;99.90;;;;;;6108337;23;20358;-82
2022/11/09 01:59:12;;;;;;;2.83;2.63;;;3.80;99.90;;;;;;6082194;23;20041;-82
2022/11/09 02:01:41;;;;;;;4.25;2.72;;;3.70;99.90;;;;;;6125718;23;20048;-82
2022/11/09 02:04:43;;;;;;;5.50;2.40;;;3.70;99.90;;;;;;6082995;23;20037;-81
2022/11/09 02:07:24;;;;;;;2.80;2.38;;;3.70;99.90;;;;;;6129140;23;20018;-81
2022/11/09 02:10:12;;;;;;;2.58;2.33;;;3.60;99.90;;;;;;6118432;23;20026;-82
2022/11/09 02:12:58;;;;;;;2.42;2.33;;;3.30;99.90;;;;;;6127483;23;20354;-82
2022/11/09 02:15:40;;;;;;;2.90;2.67;;;3.20;99.90;;;;;;6104648;23;20026;-81
2022/11/09 02:18:33;;;;;;;5.07;2.97;;;3.30;99.90;;;;;;6106671;23;20326;-81
2022/11/09 02:21:14;;;;;;;4.30;3.65;;;3.40;99.90;;;;;;6093169;23;20362;-82
2022/11/09 02:23:58;;;;;;;3.45;3.15;;;3.50;99.90;;;;;;6152526;23;20018;-82
2022/11/09 02:27:01;;;;;;;3.50;2.92;;;3.60;99.90;;;;;;6092142;23;20318;-82
2022/11/09 02:29:56;;;;;;;5.22;3.20;;;3.50;99.90;;;;;;6132954;23;20028;-82
2022/11/09 02:32:45;;;;;;;4.10;3.78;;;3.40;99.90;;;;;;6134190;23;20017;-82
2022/11/09 02:35:36;;;;;;;3.55;2.10;;;3.50;99.90;;;;;;6157600;23;20152;-82
2022/11/09 02:38:14;;;;;;;3.38;3.08;;;3.40;99.90;;;;;;6123638;23;20017;-82
2022/11/09 02:41:00;;;;;;;3.05;2.67;;;3.20;99.90;;;;;;6122357;23;20369;-82
2022/11/09 02:43:51;;;;;;;3.00;2.65;;;3.20;99.90;;;;;;6099120;23;20025;-81
2022/11/09 02:46:40;;;;;;;3.65;3.35;;;3.10;99.90;;;;;;6111366;23;20377;-82
2022/11/09 02:49:30;;;;;;;2.97;2.67;;;3.20;99.90;;;;;;6060912;23;20025;-82
2022/11/09 02:52:05;;;;;;;2.85;2.65;;;3.20;99.90;;;;;;6060894;23;20021;-82
2022/11/09 02:54:37;;;;;;;3.00;2.80;;;3.20;99.90;;;;;;6079256;23;20018;-82
2022/11/09 02:57:37;;;;;;;2.45;2.15;;;3.30;99.90;;;;;;6101846;23;20337;-82
2022/11/09 03:00:15;;;;;;;5.90;2.67;;;3.20;99.90;;;;;;6046381;23;20018;-82
2022/11/09 03:03:03;;;;;;;8.32;3.63;;;3.30;99.90;;;;;;6023774;23;20026;-82
2022/11/09 03:05:39;;;;;;;2.72;2.33;;;3.40;99.90;;;;;;6022971;23;20021;-82
2022/11/09 03:08:33;;;;;;;2.95;2.35;;;3.50;99.90;;;;;;6042642;23;20030;-82
2022/11/09 03:11:12;;;;;;;2.85;2.63;;;3.60;99.90;;;;;;6072161;23;20343;-82
2022/11/09 03:17:07;;;;;;;3.90;3.53;;;3.90;99.90;;;;;;6062826;23;20022;-82
2022/11/09 03:20:04;;;;;;;3.20;3.00;;;4.10;99.90;;;;;;6060258;23;20021;-82
2022/11/09 03:22:55;;;;;;;3.33;2.70;;;4.20;99.90;;;;;;6080723;23;20477;-82
2022/11/09 03:25:48;;;;;;;3.00;2.15;;;4.10;99.90;;;;;;6053749;23;20345;-82
2022/11/09 03:28:44;;;;;;;2.72;2.47;;;3.90;99.90;;;;;;6097061;23;20033;-82
2022/11/09 03:31:34;;;;;;;2.78;2.53;;;3.70;99.90;;;;;;6113274;23;20022;-82
2022/11/09 03:34:36;;;;;;;3.10;2.47;;;3.40;99.90;;;;;;6098653;23;20044;-82
2022/11/09 03:37:39;;;;;;;2.58;2.38;;;3.20;99.90;;;;;;6115415;23;20022;-82
2022/11/09 03:40:37;;;;;;;3.33;3.03;;;3.00;99.90;;;;;;6079824;23;20025;-82
2022/11/09 03:43:30;;;;;;;2.72;2.53;;;3.10;99.90;;;;;;6098942;23;20028;-82
2022/11/09 03:46:02;;;;;;;5.43;3.38;;;3.20;99.90;;;;;;6116449;23;20024;-82
2022/11/09 03:48:58;;;;;;;2.75;2.33;;;3.30;99.90;;;;;;6177869;23;20033;-82
2022/11/09 03:52:02;;;;;;;3.97;3.47;;;3.60;99.90;;;;;;6127870;23;20021;-82
2022/11/09 03:54:55;;;;;;;3.08;2.67;;;3.80;99.90;;;;;;6163157;23;20026;-82
2022/11/09 03:57:31;;;;;;;3.10;2.83;;;3.90;99.90;;;;;;6173794;23;20028;-82
2022/11/09 04:00:10;;;;;;;3.33;3.03;;;3.80;99.90;;;;;;6177908;22;20066;-82
2022/11/09 04:03:04;;;;;;;4.18;3.80;;;3.50;99.90;;;;;;6151416;23;20105;-82
2022/11/09 04:05:52;;;;;;;2.45;2.25;;;3.20;99.90;;;;;;6122835;23;20014;-82
2022/11/09 04:08:35;;;;;;;2.88;2.35;;;3.00;99.90;;;;;;6126574;23;20025;-82
2022/11/09 04:11:21;;;;;;;3.08;2.78;;;3.00;99.90;;;;;;6164865;23;20021;-82
2022/11/09 04:14:00;;;;;;;5.03;4.60;;;3.10;99.90;;;;;;6128778;23;20021;-82
2022/11/09 04:16:56;;;;;;;3.97;3.13;;;3.20;99.90;;;;;;6130833;23;20021;-82
2022/11/09 04:19:46;;;;;;;2.38;2.22;;;3.40;99.90;;;;;;6132683;23;20025;-82
2022/11/09 04:22:36;;;;;;;3.83;3.00;;;3.30;99.90;;;;;;6137843;23;20025;-82
2022/11/09 04:25:31;;;;;;;3.42;2.63;;;3.30;99.90;;;;;;6096299;23;20033;-82
2022/11/09 04:28:29;;;;;;;5.13;2.45;;;3.10;99.90;;;;;;6075092;23;20034;-82
2022/11/09 04:31:26;;;;;;;2.67;2.47;;;3.20;99.90;;;;;;6069137;23;20026;-82
2022/11/09 04:34:07;;;;;;;3.00;2.70;;;3.00;99.90;;;;;;6069840;23;20170;-82
2022/11/09 04:36:54;;;;;;;2.50;2.40;;;2.90;99.90;;;;;;6067845;23;20025;-82
2022/11/09 04:39:29;;;;;;;4.60;2.55;;;2.90;99.90;;;;;;6121590;23;20025;-82
2022/11/09 04:42:21;;;;;;;5.10;3.03;;;2.90;99.90;;;;;;6122441;23;20029;-82
2022/11/09 04:45:11;;;;;;;3.40;3.05;;;3.00;99.90;;;;;;6074498;23;20022;-82
2022/11/09 04:48:21;;;;;;;2.88;2.67;;;3.00;99.90;;;;;;6077358;23;20029;-82
2022/11/09 04:51:14;;;;;;;3.30;3.00;;;3.10;99.90;;;;;;6099411;23;20123;-82
2022/11/09 04:54:14;;;;;;;2.67;2.47;;;3.10;99.90;;;;;;6091197;23;20025;-82
2022/11/09 04:57:03;;;;;;;2.70;2.47;;;3.00;99.90;;;;;;6036542;23;20022;-82
2022/11/09 04:59:40;;;;;;;2.85;1.95;;;2.90;99.90;;;;;;6052202;23;20033;-82
2022/11/09 05:02:28;;;;;;;2.92;2.70;;;3.00;99.90;;;;;;6053497;23;20631;-82
2022/11/09 05:05:08;;;;;;;2.42;2.05;;;3.30;99.90;;;;;;6094103;23;20458;-82
2022/11/09 05:08:01;;;;;;;2.13;2.03;;;3.30;99.90;;;;;;6084381;23;20033;-82
2022/11/09 05:10:40;;;;;;;2.33;2.20;;;3.30;99.90;;;;;;6123594;23;20021;-82
2022/11/09 05:13:43;;;;;;;2.85;1.77;;;3.60;99.90;;;;;;6041912;23;20023;-82
2022/11/09 05:16:34;;;;;;;4.30;2.97;;;4.00;99.90;;;;;;6037593;23;20078;-82
2022/11/09 05:19:40;;;;;;;2.90;2.30;;;4.10;99.90;;;;;;6010922;23;20023;-82
2022/11/09 05:25:13;;;;;;;2.55;2.35;;;4.30;99.90;;;;;;6091425;23;20032;-82
2022/11/09 05:27:58;;;;;;;3.22;2.92;;;4.00;99.90;;;;;;6100643;23;20468;-82
2022/11/09 05:31:48;;;;;;;3.88;2.67;;;4.00;99.90;;;;;;6131350;23;20032;-87
2022/11/09 05:34:59;;;;;;;3.08;2.88;;;3.60;99.90;;;;;;6138762;23;20021;-88
2022/11/09 06:20:15;;;;;;;6.80;2.58;;;4.40;99.90;;;;;;6113383;23;20346;-85
2022/11/09 06:27:38;;;;;;;3.28;2.97;;;4.60;99.90;;;;;;6214137;23;20020;-88
2022/11/09 07:20:39;;;;;;;;;;;;;;;;;;;;;
2022/11/09 07:23:17;;;;;;;5.22;2.53;;;6.70;99.90;;;;;;6083782;23;20084;-86
2022/11/09 07:26:10;;;;;;;2.80;1.83;;;7.00;99.90;;;;;;6073792;23;20397;-86
2022/11/09 07:28:57;;;;;;;2.97;2.72;;;7.10;99.90;;;;;;6098696;23;20030;-86
2022/11/09 07:31:56;;;;;;;16.60;6.03;;;7.30;99.90;;;;;;6084237;23;20104;-86
2022/11/09 07:38:43;;;;;;;2.17;1.70;;;7.50;99.90;;;;;;5908773;23;20319;-83
2022/11/09 07:41:20;;;;;;;2.47;2.28;;;8.00;99.90;;;;;;5905520;24;20035;-85
2022/11/09 07:44:04;;;;;;;1.63;1.50;;;8.10;99.90;;;;;;6033876;23;20034;-81
2022/11/09 07:46:34;;;;;;;2.17;1.90;;;8.00;99.90;;;;;;6044647;23;20019;-85
2022/11/09 07:49:09;;;;;;;2.58;1.60;;;7.90;99.90;;;;;;6047315;23;20018;-81
2022/11/09 07:51:37;;;;;;;1.92;1.83;;;7.90;99.90;;;;;;6129001;23;20032;-83
2022/11/09 07:54:05;;;;;;;1.67;1.50;;;8.00;99.90;;;;;;6124414;23;20044;-83
2022/11/09 07:56:33;;;;;;;2.55;1.42;;;7.90;99.90;;;;;;6095967;23;20454;-82
2022/11/09 07:59:01;;;;;;;10.82;1.58;;;7.80;99.90;;;;;;6127965;23;20026;-83
2022/11/09 08:01:28;;;;;;;1.48;1.38;;;7.80;99.90;;;;;;6130402;23;20022;-82
2022/11/09 08:03:56;;;;;;;6.63;1.55;;;7.90;99.90;;;;;;6095171;23;20026;-83
2022/11/09 08:06:26;;;;;;;1.35;1.25;;;8.00;99.90;;;;;;6096048;23;20033;-83
2022/11/09 08:08:55;;;;;;;1.92;1.33;;;8.10;99.90;;;;;;6095303;23;20026;-83
2022/11/09 08:11:23;;;;;;;1.45;1.27;;;8.10;99.90;;;;;;6095163;23;20033;-83
2022/11/09 08:13:51;;;;;;;1.75;1.65;;;8.10;99.90;;;;;;6130401;23;20013;-83
2022/11/09 08:16:18;;;;;;;1.25;1.15;;;8.10;99.90;;;;;;6119252;23;20029;-83
2022/11/09 08:18:46;;;;;;;2.00;1.73;;;8.20;99.90;;;;;;6095242;23;20018;-83
2022/11/09 08:21:13;;;;;;;11.02;2.13;;;8.20;99.90;;;;;;6128570;23;20022;-83
2022/11/09 08:23:46;;;;;;;2.63;1.98;;;8.10;99.90;;;;;;6124650;23;20326;-83
2022/11/09 08:26:13;;;;;;;1.63;1.20;;;8.20;99.90;;;;;;6119584;23;20026;-83
2022/11/09 08:28:41;;;;;;;2.95;1.20;;;8.30;99.90;;;;;;6122037;23;20040;-83
2022/11/09 08:31:10;;;;;;;4.38;2.08;;;8.30;99.90;;;;;;6126747;23;20053;-83
2022/11/09 08:33:40;;;;;;;1.52;1.42;;;8.40;99.90;;;;;;6130202;23;20017;-83
2022/11/09 08:36:15;;;;;;;1.17;1.10;;;8.50;99.90;;;;;;6122920;23;20076;-83
2022/11/09 08:38:44;;;;;;;7.22;2.22;;;8.70;99.90;;;;;;6119875;23;20018;-83
2022/11/09 08:41:12;;;;;;;2.10;1.52;;;8.80;99.90;;;;;;6130987;23;20025;-83
2022/11/09 08:43:40;;;;;;;10.15;1.67;;;8.90;99.90;;;;;;6120626;23;20030;-83
2022/11/09 08:46:08;;;;;;;3.78;1.73;;;9.10;99.90;;;;;;6122540;23;20018;-83
2022/11/09 08:48:36;;;;;;;3.85;1.33;;;9.20;99.90;;;;;;6122970;23;20030;-85
2022/11/09 08:51:03;;;;;;;4.13;1.35;;;9.30;99.90;;;;;;6073059;23;20040;-85
2022/11/09 08:53:31;;;;;;;3.92;1.40;;;9.60;99.90;;;;;;6121910;23;20646;-84
2022/11/09 08:56:00;;;;;;;6.78;1.40;;;9.80;99.90;;;;;;6124819;23;20026;-85
2022/11/09 08:58:28;;;;;;;4.47;1.45;;;10.10;99.90;;;;;;6096829;23;20438;-85
2022/11/09 09:00:56;;;;;;;3.15;1.20;;;10.30;99.90;;;;;;6096397;23;20051;-84
2022/11/09 09:03:28;;;;;;;3.88;2.03;;;10.50;99.90;;;;;;6120838;23;20052;-85
2022/11/09 09:05:55;;;;;;;11.52;1.92;;;10.80;99.90;;;;;;6133533;23;20018;-85
2022/11/09 09:08:24;;;;;;;6.63;1.27;;;11.00;99.90;;;;;;6123451;23;20497;-85
2022/11/09 09:10:51;;;;;;;6.65;1.02;;;11.20;99.90;;;;;;6121079;23;20026;-85
2022/11/09 09:13:21;;;;;;;12.05;1.83;;;11.50;99.90;;;;;;6097744;23;20018;-85
2022/11/09 09:15:49;;;;;;;6.38;3.10;;;11.80;99.90;;;;;;6127763;23;20029;-86
2022/11/09 09:18:21;;;;;;;2.33;2.10;;;12.00;99.90;;;;;;6131294;23;20025;-86
2022/11/09 09:20:49;;;;;;;4.68;1.65;;;12.20;99.90;;;;;;6121534;23;20026;-86
2022/11/09 09:23:16;;;;;;;4.18;1.70;;;12.20;99.90;;;;;;6096537;23;20353;-85
2022/11/09 09:25:44;;;;;;;8.30;2.35;;;12.20;99.90;;;;;;6121368;23;20542;-85
2022/11/09 09:28:11;;;;;;;2.08;1.33;;;12.20;99.90;;;;;;6120695;23;20036;-86
2022/11/09 09:30:39;;;;;;;1.95;1.17;;;12.30;99.90;;;;;;6072781;23;20022;-86
2022/11/09 09:33:06;;;;;;;1.98;1.40;;;12.40;99.90;;;;;;6133371;23;20024;-86
2022/11/09 09:35:34;;;;;;;4.45;1.52;;;12.50;99.90;;;;;;6121167;23;20029;-86
2022/11/09 09:38:01;;;;;;;3.92;1.17;;;12.60;99.90;;;;;;6096839;23;20018;-86
2022/11/09 09:40:39;;;;;;;1.40;1.30;;;12.80;99.90;;;;;;6123053;23;20029;-86
2022/11/09 09:43:20;;;;;;;1.95;1.83;;;12.80;99.90;;;;;;6103972;23;20462;-86
2022/11/09 09:45:51;;;;;;;2.33;1.73;;;12.90;99.90;;;;;;6132263;23;20028;-86
2022/11/09 09:48:39;;;;;;;2.38;2.08;;;12.90;99.90;;;;;;6120917;23;20257;-85
2022/11/09 09:51:38;;;;;;;4.20;1.95;;;12.80;99.90;;;;;;6120565;23;20037;-86
2022/11/09 09:54:20;;;;;;;2.05;1.88;;;12.90;99.90;;;;;;6105822;23;20022;-86
2022/11/09 09:56:49;;;;;;;1.73;1.63;;;12.90;99.90;;;;;;6122402;23;20030;-86
2022/11/09 09:59:35;;;;;;;3.58;2.08;;;12.90;99.90;;;;;;6095531;23;20030;-86
2022/11/09 10:02:23;;;;;;;2.58;1.48;;;12.90;99.90;;;;;;6097159;23;20646;-86
2022/11/09 10:04:56;;;;;;;2.92;1.52;;;13.10;99.90;;;;;;6121361;23;20022;-86
2022/11/09 10:07:38;;;;;;;1.45;1.35;;;13.10;99.90;;;;;;6095032;23;20022;-87
2022/11/09 10:10:09;;;;;;;2.65;1.80;;;13.20;99.90;;;;;;6131423;23;20014;-86
2022/11/09 10:12:47;;;;;;;1.90;1.35;;;13.10;99.90;;;;;;6096283;23;20349;-86
2022/11/09 10:15:29;;;;;;;2.80;1.83;;;13.20;99.90;;;;;;6128863;23;20061;-87
2022/11/09 10:18:00;;;;;;;2.58;1.73;;;13.20;99.90;;;;;;6121513;23;20033;-85
2022/11/09 10:20:46;;;;;;;4.35;2.35;;;13.10;99.90;;;;;;6122097;23;20354;-86
2022/11/09 10:23:24;;;;;;;2.85;2.10;;;12.90;99.90;;;;;;6095982;23;20022;-86
2022/11/09 10:26:03;;;;;;;1.83;1.50;;;12.80;99.90;;;;;;6130689;23;20030;-86
2022/11/09 10:28:40;;;;;;;3.33;1.60;;;12.60;99.90;;;;;;6071865;23;20029;-85
2022/11/09 10:31:32;;;;;;;3.05;1.60;;;12.60;99.90;;;;;;6095687;23;20037;-85
2022/11/09 10:34:11;;;;;;;5.72;2.33;;;12.50;99.90;;;;;;6130696;23;20715;-85
2022/11/09 10:37:06;;;;;;;2.70;2.40;;;12.30;99.90;;;;;;6121084;23;20026;-85
2022/11/09 10:40:03;;;;;;;1.88;1.77;;;12.30;99.90;;;;;;6080486;23;20026;-87
2022/11/09 10:42:53;;;;;;;5.70;2.28;;;12.50;99.90;;;;;;6076245;23;20025;-86
2022/11/09 10:45:43;;;;;;;2.97;2.30;;;12.80;99.90;;;;;;6117114;23;20022;-85
2022/11/09 10:48:35;;;;;;;3.25;2.17;;;12.90;99.90;;;;;;6120098;23;20366;-85
2022/11/09 10:51:40;;;;;;;4.22;2.15;;;13.10;99.90;;;;;;6095067;23;20022;-86
2022/11/09 10:54:28;;;;;;;2.53;2.13;;;13.40;99.90;;;;;;6121145;23;20045;-86
2022/11/09 10:57:18;;;;;;;1.92;1.83;;;13.50;99.90;;;;;;6052179;23;20041;-86
2022/11/09 11:00:12;;;;;;;1.88;1.73;;;13.80;99.90;;;;;;6124818;23;20026;-85
2022/11/09 11:03:16;;;;;;;2.45;1.73;;;14.10;99.90;;;;;;6119643;23;20461;-86
2022/11/09 11:06:38;;;;;;;2.03;1.83;;;14.00;99.90;;;;;;6121035;23;20658;-86
2022/11/09 11:09:31;;;;;;;3.70;2.60;;;14.00;99.90;;;;;;6105653;23;20029;-86
2022/11/09 11:12:20;;;;;;;1.65;1.55;;;13.90;99.90;;;;;;6115178;23;20025;-86
2022/11/09 11:15:27;;;;;;;3.97;2.00;;;13.80;99.90;;;;;;6117906;23;20018;-86
2022/11/09 11:18:21;;;;;;;1.92;1.52;;;13.60;99.90;;;;;;6120742;23;20018;-86
2022/11/09 11:21:15;;;;;;;4.45;2.00;;;13.80;99.90;;;;;;6094578;23;20022;-86
2022/11/09 11:24:18;;;;;;;1.92;1.73;;;14.00;99.90;;;;;;6119382;23;20064;-85
2022/11/09 11:27:31;;;;;;;2.42;1.70;;;14.20;99.90;;;;;;6074733;23;20022;-85
2022/11/09 11:30:27;;;;;;;4.10;3.05;;;14.30;99.90;;;;;;6120492;23;20025;-85
2022/11/09 11:33:18;;;;;;;1.83;1.30;;;14.50;99.90;;;;;;6096958;23;20563;-85
2022/11/09 11:36:28;;;;;;;3.78;3.05;;;14.30;99.90;;;;;;6105174;23;20064;-86
2022/11/09 11:39:49;;;;;;;2.50;2.30;;;14.20;99.90;;;;;;6119405;23;20700;-86
2022/11/09 11:42:54;;;;;;;4.60;2.40;;;14.20;99.90;;;;;;6104576;23;20260;-85
2022/11/09 11:46:08;;;;;;;4.00;3.20;;;14.20;99.90;;;;;;6121237;23;20716;-85
2022/11/09 11:49:13;;;;;;;2.17;1.98;;;14.20;99.90;;;;;;6119401;23;20025;-85
2022/11/09 11:52:14;;;;;;;4.47;1.77;;;14.40;99.90;;;;;;6119444;23;20030;-85
2022/11/09 11:55:18;;;;;;;2.70;2.08;;;14.60;99.90;;;;;;6128233;23;20406;-85
2022/11/09 11:58:27;;;;;;;2.45;2.05;;;14.60;99.90;;;;;;6131373;23;20017;-85
2022/11/09 12:01:35;;;;;;;7.47;2.53;;;14.70;99.90;;;;;;6118250;23;20030;-86
2022/11/09 12:04:40;;;;;;;1.90;1.80;;;14.60;99.90;;;;;;6118934;23;20033;-86
2022/11/09 12:07:55;;;;;;;8.90;3.25;;;14.80;99.90;;;;;;6119223;23;20037;-86
2022/11/09 12:10:47;;;;;;;2.08;1.88;;;14.80;99.90;;;;;;6119210;23;20022;-86
2022/11/09 12:14:18;;;;;;;2.72;2.28;;;14.90;99.90;;;;;;6131631;23;20681;-86
2022/11/09 12:17:24;;;;;;;6.57;2.30;;;15.00;99.90;;;;;;6057515;23;20031;-86
2022/11/09 12:20:19;;;;;;;2.15;1.95;;;15.10;99.90;;;;;;6061257;23;20023;-86
2022/11/09 12:23:26;;;;;;;3.75;1.65;;;15.20;99.90;;;;;;6062670;23;20918;-86
2022/11/09 12:26:18;;;;;;;2.05;1.92;;;15.10;99.90;;;;;;6068871;23;20027;-86
2022/11/09 12:29:51;;;;;;;3.63;2.38;;;15.00;99.90;;;;;;6099558;23;20350;-88
2022/11/09 12:33:39;;;;;;;2.30;2.20;;;15.00;99.90;;;;;;6020328;23;20034;-87
2022/11/09 12:37:37;;;;;;;2.72;1.80;;;15.10;99.90;;;;;;5952534;24;20036;-90
2022/11/09 12:44:56;;;;;;;1.77;1.55;;;15.30;99.90;;;;;;6151946;23;20029;-88
2022/11/09 12:54:38;;;;;;;16.30;2.17;;;15.40;99.90;;;;;;6071649;23;20026;-88
2022/11/09 12:58:02;;;;;;;2.15;1.67;;;15.60;99.90;;;;;;5998800;23;20038;-87
2022/11/09 13:15:29;;;;;;;6.35;2.08;;;14.80;99.90;;;;;;6109548;23;20026;-85
2022/11/09 13:18:46;;;;;;;2.67;2.45;;;14.80;99.90;;;;;;6151522;23;20049;-85
2022/11/09 13:21:34;;;;;;;5.10;4.43;;;14.90;99.90;;;;;;6129395;23;20723;-84
2022/11/09 13:24:52;;;;;;;3.65;2.03;;;14.80;99.90;;;;;;6112827;23;20037;-84
2022/11/09 13:27:44;;;;;;;3.28;2.58;;;14.80;99.90;;;;;;6144795;23;20030;-84
2022/11/09 13:30:39;;;;;;;2.80;2.30;;;14.80;99.90;;;;;;6145844;23;20033;-84
2022/11/09 13:33:27;;;;;;;1.65;1.55;;;14.70;99.90;;;;;;6100793;23;20042;-83
2022/11/09 13:36:18;;;;;;;5.05;2.25;;;14.60;99.90;;;;;;6114513;23;20031;-84
2022/11/09 13:39:32;;;;;;;1.98;1.80;;;14.50;99.90;;;;;;6115953;23;20030;-83
2022/11/09 13:42:39;;;;;;;2.33;2.20;;;14.50;99.90;;;;;;6103822;23;20037;-84
2022/11/09 13:45:30;;;;;;;3.55;2.88;;;14.40;99.90;;;;;;6154105;23;20025;-83
2022/11/09 13:48:53;;;;;;;4.22;2.00;;;14.40;99.90;;;;;;6125045;23;20477;-84
2022/11/09 13:51:48;;;;;;;4.60;1.77;;;14.30;99.90;;;;;;6144698;23;20026;-83
2022/11/09 13:54:41;;;;;;;3.28;2.33;;;14.30;99.90;;;;;;6122558;23;20025;-83
2022/11/09 13:57:27;;;;;;;2.50;2.10;;;14.40;99.90;;;;;;6124999;23;20033;-83
2022/11/09 14:00:22;;;;;;;9.43;2.83;;;14.40;99.90;;;;;;6145393;23;20034;-84
2022/11/09 14:03:24;;;;;;;1.83;1.73;;;14.50;99.90;;;;;;6133048;23;20030;-83
2022/11/09 14:06:17;;;;;;;2.58;1.50;;;14.50;99.90;;;;;;6116292;23;20033;-84
2022/11/09 14:09:17;;;;;;;3.10;2.30;;;14.50;99.90;;;;;;6070511;23;20038;-84
2022/11/09 14:12:07;;;;;;;2.10;1.98;;;14.50;99.90;;;;;;6113620;23;20493;-84
2022/11/09 14:15:07;;;;;;;1.95;1.60;;;14.50;99.90;;;;;;6112257;23;20018;-84
2022/11/09 14:18:32;;;;;;;1.92;1.50;;;14.50;99.90;;;;;;6102656;23;20029;-84
2022/11/09 14:21:31;;;;;;;2.53;1.65;;;14.50;99.90;;;;;;6079156;23;20030;-84
2022/11/09 14:24:21;;;;;;;2.15;1.83;;;14.40;99.90;;;;;;6116166;23;20022;-83
2022/11/09 14:27:10;;;;;;;3.60;2.33;;;14.40;99.90;;;;;;6104929;23;20454;-84
2022/11/09 14:30:01;;;;;;;1.83;1.73;;;14.40;99.90;;;;;;6146228;23;20018;-84
2022/11/09 14:32:50;;;;;;;3.55;2.03;;;14.30;99.90;;;;;;6123129;23;20030;-83
2022/11/09 14:35:38;;;;;;;4.47;2.33;;;14.20;99.90;;;;;;6097558;23;20328;-83
2022/11/09 14:38:41;;;;;;;2.13;1.92;;;14.10;99.90;;;;;;6099350;23;20014;-83
2022/11/09 14:41:28;;;;;;;4.13;2.25;;;14.00;99.90;;;;;;6099878;23;20080;-84
2022/11/09 14:44:24;;;;;;;1.63;1.52;;;14.00;99.90;;;;;;6093978;23;20022;-84
2022/11/09 14:47:16;;;;;;;1.95;1.75;;;13.90;99.90;;;;;;6099459;23;20037;-84
2022/11/09 14:50:14;;;;;;;1.92;1.73;;;13.90;99.90;;;;;;6114929;23;20022;-83
2022/11/09 14:53:02;;;;;;;6.65;2.47;;;13.80;99.90;;;;;;6092196;23;20027;-84
2022/11/09 14:55:50;;;;;;;3.05;2.78;;;13.70;99.90;;;;;;6070336;23;20022;-83
2022/11/09 14:58:42;;;;;;;2.10;2.00;;;13.60;99.90;;;;;;6092213;23;20018;-84
2022/11/09 15:01:28;;;;;;;2.72;2.42;;;13.50;99.90;;;;;;6122303;23;20025;-84
2022/11/09 15:04:20;;;;;;;2.83;2.22;;;13.50;99.90;;;;;;6093816;23;20480;-85
2022/11/09 15:07:17;;;;;;;2.78;2.15;;;13.20;99.90;;;;;;6114956;23;20727;-84
2022/11/09 15:10:07;;;;;;;2.60;2.38;;;13.30;99.90;;;;;;6101115;23;20343;-84
2022/11/09 15:12:58;;;;;;;3.20;2.22;;;13.20;99.90;;;;;;6070317;23;20038;-84
2022/11/09 15:15:51;;;;;;;2.55;2.00;;;13.00;99.90;;;;;;6114832;23;20030;-84
2022/11/09 15:18:46;;;;;;;3.33;2.67;;;13.00;99.90;;;;;;6057863;23;20029;-84
2022/11/09 15:21:36;;;;;;;2.38;1.98;;;12.90;99.90;;;;;;6119137;23;20022;-84
2022/11/09 15:24:42;;;;;;;1.83;1.58;;;12.70;99.90;;;;;;6092159;23;20351;-84
2022/11/09 15:27:36;;;;;;;3.13;2.00;;;12.20;99.90;;;;;;6114908;23;20457;-84
2022/11/09 15:31:04;;;;;;;2.92;2.72;;;11.80;99.90;;;;;;6102792;23;20018;-84
2022/11/09 15:33:54;;;;;;;3.20;2.88;;;11.50;99.90;;;;;;6099785;23;20037;-84
2022/11/09 15:36:40;;;;;;;2.30;2.10;;;11.40;99.90;;;;;;6070110;23;20030;-84
2022/11/09 15:39:31;;;;;;;4.28;3.47;;;11.30;99.90;;;;;;6079333;23;20035;-83
2022/11/09 15:42:21;;;;;;;2.33;2.00;;;11.20;99.90;;;;;;6072802;23;20018;-84
2022/11/09 15:45:11;;;;;;;2.05;1.95;;;11.10;99.90;;;;;;6061250;23;20022;-84
2022/11/09 15:48:31;;;;;;;7.13;2.28;;;11.10;99.90;;;;;;6067074;23;20030;-84
2022/11/09 15:51:18;;;;;;;3.70;2.60;;;11.00;99.90;;;;;;6097684;23;20034;-83
2022/11/09 15:54:04;;;;;;;3.20;2.78;;;10.90;99.90;;;;;;6122038;23;20023;-84
2022/11/09 15:56:51;;;;;;;2.17;2.08;;;10.60;99.90;;;;;;6113239;23;20343;-83
2022/11/09 15:59:37;;;;;;;2.60;2.10;;;10.20;99.90;;;;;;6097544;23;20026;-83
2022/11/09 16:02:23;;;;;;;2.80;2.60;;;10.10;99.90;;;;;;6091281;23;20029;-83
2022/11/09 16:05:10;;;;;;;3.47;2.22;;;10.00;99.90;;;;;;6122086;23;20023;-83
2022/11/09 16:07:56;;;;;;;3.95;3.55;;;10.00;99.90;;;;;;6095716;23;20030;-82
2022/11/09 16:10:43;;;;;;;9.05;3.33;;;9.80;99.90;;;;;;6101043;23;20026;-83
2022/11/09 16:13:29;;;;;;;3.45;2.92;;;9.80;99.90;;;;;;6098390;23;20461;-83
2022/11/09 16:16:18;;;;;;;6.78;3.38;;;9.80;99.90;;;;;;6092797;23;20042;-84
2022/11/09 16:19:13;;;;;;;3.83;2.65;;;9.90;99.90;;;;;;6114651;23;20030;-84
2022/11/09 16:22:02;;;;;;;5.18;3.42;;;9.90;99.90;;;;;;6090405;23;20026;-84
2022/11/09 16:24:50;;;;;;;5.18;2.72;;;9.80;99.90;;;;;;6062576;23;20030;-84
2022/11/09 16:27:42;;;;;;;3.80;2.95;;;9.80;99.90;;;;;;6064950;23;20451;-83
2022/11/09 16:30:38;;;;;;;4.68;2.90;;;9.80;99.90;;;;;;6085895;23;20023;-85
2022/11/09 16:33:32;;;;;;;3.40;2.92;;;9.70;99.90;;;;;;6072238;23;20026;-85
2022/11/09 16:36:26;;;;;;;4.97;2.95;;;9.80;99.90;;;;;;6113856;23;20026;-85
2022/11/09 16:39:18;;;;;;;3.80;2.80;;;9.80;99.90;;;;;;6080845;23;20454;-85
2022/11/09 16:42:09;;;;;;;2.45;2.22;;;9.90;99.90;;;;;;6042013;23;20343;-85
2022/11/09 16:45:02;;;;;;;4.32;2.95;;;9.80;99.90;;;;;;6095967;23;20026;-87
2022/11/09 16:47:52;;;;;;;3.22;2.78;;;9.80;99.90;;;;;;6106666;23;20027;-88
2022/11/09 16:50:38;;;;;;;5.13;3.13;;;9.70;99.90;;;;;;6106086;23;20455;-87
2022/11/09 16:53:24;;;;;;;10.00;6.47;;;9.60;99.90;;;;;;6062228;23;20034;-86
2022/11/09 16:56:13;;;;;;;3.40;3.08;;;9.80;99.90;;;;;;6066152;23;20035;-85
2022/11/09 16:58:59;;;;;;;3.55;3.25;;;9.80;99.90;;;;;;6091139;23;20482;-86
2022/11/09 17:01:57;;;;;;;4.18;3.53;;;9.70;99.90;;;;;;6102665;23;20440;-89
2022/11/09 17:04:43;;;;;;;5.45;3.63;;;9.50;99.90;;;;;;6094723;23;20049;-89